createdAt,value
2022-11-10T14:14:59.065Z,1003.77
2022-11-10T18:16:26.947Z,1005.55
2022-11-10T18:17:27.443Z,1005.63
2022-11-10T18:18:26.518Z,1005.56
2022-11-10T18:19:26.515Z,1005.62
2022-11-10T18:20:26.557Z,1005.62
2022-11-10T18:21:27.352Z,1005.57
2022-11-10T18:22:26.481Z,1005.61
2022-11-10T18:23:26.532Z,1005.56
2022-11-10T18:24:26.486Z,1005.58
2022-11-10T18:25:26.533Z,1005.58
2022-11-10T18:26:26.462Z,1005.59
2022-11-10T18:27:26.463Z,1005.64
2022-11-10T18:28:26.465Z,1005.64
2022-11-10T18:29:26.475Z,1005.59
2022-11-10T18:30:29.774Z,1005.56
2022-11-10T18:31:27.408Z,1005.55
2022-11-10T18:32:26.492Z,1005.50
2022-11-10T18:33:26.544Z,1005.51
2022-11-10T18:34:26.411Z,1005.51
2022-11-10T18:35:26.423Z,1005.50
2022-11-10T18:36:26.372Z,1005.40
2022-11-10T18:37:26.384Z,1005.43
2022-11-10T18:38:26.356Z,1005.40
2022-11-10T18:39:26.373Z,1005.41
2022-11-10T18:40:26.367Z,1005.39
2022-11-10T18:41:26.387Z,1005.39
2022-11-10T18:42:26.339Z,1005.36
2022-11-10T18:43:26.548Z,1005.41
2022-11-10T18:44:26.349Z,1005.39
2022-11-10T18:45:26.327Z,1005.37
2022-11-10T18:46:26.303Z,1005.32
2022-11-10T18:47:26.333Z,1005.41
2022-11-10T18:48:30.203Z,1005.47
2022-11-10T18:49:28.298Z,1005.49
2022-11-10T18:50:26.328Z,1005.54
2022-11-10T18:51:26.299Z,1005.53
2022-11-10T18:52:26.261Z,1005.55
2022-11-10T18:53:26.303Z,1005.52
2022-11-10T18:54:26.264Z,1005.50
2022-11-10T18:55:26.265Z,1005.52
2022-11-10T18:56:26.287Z,1005.51
2022-11-10T18:57:26.286Z,1005.53
2022-11-10T18:58:26.242Z,1005.58
2022-11-10T18:59:26.264Z,1005.62
2022-11-10T19:00:26.215Z,1005.59
2022-11-10T19:01:26.239Z,1005.60
2022-11-10T19:02:26.179Z,1005.66
2022-11-10T19:03:26.219Z,1005.60
2022-11-10T19:04:26.292Z,1005.68
2022-11-10T19:05:26.258Z,1005.74
2022-11-10T19:06:26.964Z,1005.69
2022-11-10T19:07:26.162Z,1005.77
2022-11-10T19:08:26.160Z,1005.76
2022-11-10T19:09:26.155Z,1005.70
2022-11-10T19:10:26.173Z,1005.67
2022-11-10T19:11:26.145Z,1005.62
2022-11-10T19:12:26.878Z,1005.60
2022-11-10T19:13:27.122Z,1005.65
2022-11-10T19:14:26.096Z,1005.62
2022-11-10T19:15:26.119Z,1005.63
2022-11-10T19:16:26.088Z,1005.64
2022-11-10T19:17:26.131Z,1005.69
2022-11-10T19:18:26.104Z,1005.69
2022-11-10T19:19:26.063Z,1005.71
2022-11-10T19:20:26.156Z,1005.63
2022-11-10T19:21:26.057Z,1005.67
2022-11-10T19:22:26.055Z,1005.59
2022-11-10T19:23:26.384Z,1005.60
2022-11-10T19:24:28.005Z,1005.56
2022-11-10T19:25:27.077Z,1005.57
2022-11-10T19:26:26.087Z,1005.52
2022-11-10T19:27:26.062Z,1005.57
2022-11-10T19:28:26.007Z,1005.56
2022-11-10T19:29:26.009Z,1005.65
2022-11-10T19:30:26.038Z,1005.57
2022-11-10T19:31:26.000Z,1005.54
2022-11-10T19:32:25.995Z,1005.63
2022-11-10T19:33:26.128Z,1005.62
2022-11-10T19:34:25.994Z,1005.53
2022-11-10T19:35:26.007Z,1005.62
2022-11-10T19:36:26.023Z,1005.62
2022-11-10T19:37:28.666Z,1005.65
2022-11-10T19:38:26.936Z,1005.63
2022-11-10T19:39:25.935Z,1005.67
2022-11-10T19:40:25.945Z,1005.67
2022-11-10T19:41:25.946Z,1005.65
2022-11-10T19:42:25.924Z,1005.73
2022-11-10T19:43:26.014Z,1005.73
2022-11-10T19:44:25.935Z,1005.72
2022-11-10T19:45:25.924Z,1005.76
2022-11-10T19:46:25.889Z,1005.68
2022-11-10T19:47:25.885Z,1005.72
2022-11-10T19:48:25.888Z,1005.73
2022-11-10T19:49:25.852Z,1005.75
2022-11-10T19:50:25.879Z,1005.82
2022-11-10T19:51:25.890Z,1005.75
2022-11-10T19:52:25.932Z,1005.80
2022-11-10T19:53:26.027Z,1005.89
2022-11-10T19:54:25.860Z,1005.84
2022-11-10T19:55:25.855Z,1005.88
2022-11-10T19:58:17.815Z,1005.86
2022-11-10T20:00:11.284Z,1005.91
2022-11-10T20:00:45.218Z,1005.89
2022-11-10T20:01:12.874Z,1005.99
2022-11-10T20:02:13.590Z,1006.01
2022-11-10T20:05:04.908Z,1005.97
2022-11-10T20:05:38.864Z,1006.03
2022-11-10T20:06:06.434Z,1006.05
2022-11-10T20:07:06.488Z,1006.02
2022-11-10T20:08:09.801Z,1005.97
2022-11-10T20:09:07.458Z,1006.01
2022-11-10T20:10:06.420Z,1006.01
2022-11-10T20:11:06.390Z,1006.07
2022-11-10T20:12:06.388Z,1006.06
2022-11-10T20:13:06.376Z,1006.04
2022-11-10T20:14:06.438Z,1006.08
2022-11-10T20:15:06.383Z,1006.08
2022-11-10T20:16:06.379Z,1006.11
2022-11-10T20:17:06.388Z,1006.13
2022-11-10T20:18:06.353Z,1006.17
2022-11-10T20:19:06.324Z,1006.10
2022-11-10T20:20:06.364Z,1006.24
2022-11-10T20:21:06.308Z,1006.22
2022-11-10T20:22:06.314Z,1006.26
2022-11-10T20:23:06.295Z,1006.22
2022-11-10T20:24:06.361Z,1006.29
2022-11-10T20:25:06.338Z,1006.33
2022-11-10T20:26:06.338Z,1006.33
2022-11-10T20:27:06.269Z,1006.38
2022-11-10T20:28:06.271Z,1006.40
2022-11-10T20:29:06.266Z,1006.39
2022-11-10T20:30:07.282Z,1006.46
2022-11-10T20:31:06.240Z,1006.45
2022-11-10T20:32:06.267Z,1006.43
2022-11-10T20:33:06.227Z,1006.43
2022-11-10T20:34:06.197Z,1006.45
2022-11-10T20:35:06.230Z,1006.42
2022-11-10T20:36:06.222Z,1006.50
2022-11-10T20:37:06.214Z,1006.48
2022-11-10T20:38:06.186Z,1006.49
2022-11-10T20:39:06.224Z,1006.46
2022-11-10T20:40:14.064Z,1006.48
2022-11-10T20:41:08.220Z,1006.42
2022-11-10T20:42:06.178Z,1006.38
2022-11-10T20:43:06.163Z,1006.43
2022-11-10T20:44:06.167Z,1006.41
2022-11-10T20:45:06.228Z,1006.49
2022-11-10T20:46:06.171Z,1006.50
2022-11-10T20:47:06.153Z,1006.54
2022-11-10T20:48:06.159Z,1006.55
2022-11-10T20:49:06.147Z,1006.49
2022-11-10T20:50:10.214Z,1006.51
2022-11-10T20:51:08.135Z,1006.51
2022-11-10T20:52:06.107Z,1006.58
2022-11-10T20:53:06.099Z,1006.58
2022-11-10T20:54:06.083Z,1006.58
2022-11-10T20:55:06.073Z,1006.61
2022-11-10T20:56:06.173Z,1006.65
2022-11-10T20:57:06.060Z,1006.65
2022-11-10T20:58:06.037Z,1006.70
2022-11-10T20:59:06.036Z,1006.67
2022-11-10T21:00:06.068Z,1006.69
2022-11-10T21:01:06.089Z,1006.63
2022-11-10T21:02:06.034Z,1006.69
2022-11-10T21:03:06.016Z,1006.63
2022-11-10T21:04:06.007Z,1006.64
2022-11-10T21:05:05.996Z,1006.64
2022-11-10T21:06:06.014Z,1006.57
2022-11-10T21:07:06.018Z,1006.62
2022-11-10T21:08:06.023Z,1006.63
2022-11-10T21:09:05.954Z,1006.61
2022-11-10T21:10:05.976Z,1006.64
2022-11-10T21:11:05.975Z,1006.64
2022-11-10T21:12:06.031Z,1006.59
2022-11-10T21:13:05.954Z,1006.58
2022-11-10T21:14:05.944Z,1006.61
2022-11-10T21:15:05.955Z,1006.59
2022-11-10T21:16:05.947Z,1006.56
2022-11-10T21:17:05.906Z,1006.60
2022-11-10T21:18:05.906Z,1006.57
2022-11-10T21:19:06.441Z,1006.63
2022-11-10T21:20:05.902Z,1006.59
2022-11-10T21:21:05.904Z,1006.59
2022-11-10T21:22:05.910Z,1006.60
2022-11-10T21:23:05.896Z,1006.57
2022-11-10T21:24:05.866Z,1006.63
2022-11-10T21:25:05.840Z,1006.57
2022-11-10T21:26:05.882Z,1006.59
2022-11-10T21:27:05.835Z,1006.55
2022-11-10T21:28:05.925Z,1006.61
2022-11-10T21:29:05.819Z,1006.60
2022-11-10T21:30:10.079Z,1006.59
2022-11-10T21:31:06.837Z,1006.66
2022-11-10T21:32:05.840Z,1006.63
2022-11-10T21:33:05.798Z,1006.70
2022-11-10T21:34:05.842Z,1006.71
2022-11-10T21:35:05.805Z,1006.71
2022-11-10T21:36:05.865Z,1006.69
2022-11-10T21:37:05.811Z,1006.72
2022-11-10T21:38:05.794Z,1006.69
2022-11-10T21:39:05.752Z,1006.72
2022-11-10T21:40:05.763Z,1006.67
2022-11-10T21:41:06.379Z,1006.74
2022-11-10T21:42:05.745Z,1006.67
2022-11-10T21:43:05.785Z,1006.65
2022-11-10T21:44:05.807Z,1006.62
2022-11-10T21:45:05.713Z,1006.61
2022-11-10T21:46:06.017Z,1006.59
2022-11-10T21:47:05.767Z,1006.63
2022-11-10T21:48:05.737Z,1006.67
2022-11-10T21:49:07.835Z,1006.62
2022-11-10T21:50:06.701Z,1006.68
2022-11-10T21:51:05.669Z,1006.66
2022-11-10T21:52:05.654Z,1006.62
2022-11-10T21:53:05.657Z,1006.53
2022-11-10T21:54:05.681Z,1006.51
2022-11-10T21:55:05.702Z,1006.50
2022-11-10T21:56:05.684Z,1006.43
2022-11-10T21:57:05.639Z,1006.43
2022-11-10T21:58:05.641Z,1006.45
2022-11-10T21:59:05.650Z,1006.41
2022-11-10T22:00:05.698Z,1006.41
2022-11-10T22:01:05.809Z,1006.42
2022-11-10T22:02:05.697Z,1006.43
2022-11-10T22:03:05.591Z,1006.47
2022-11-10T22:04:05.596Z,1006.48
2022-11-10T22:05:05.620Z,1006.46
2022-11-10T22:06:05.592Z,1006.45
2022-11-10T22:07:05.667Z,1006.50
2022-11-10T22:08:05.590Z,1006.55
2022-11-10T22:09:05.565Z,1006.55
2022-11-10T22:10:05.606Z,1006.55
2022-11-10T22:11:05.570Z,1006.53
2022-11-10T22:12:05.549Z,1006.55
2022-11-10T22:13:05.567Z,1006.56
2022-11-10T22:14:05.550Z,1006.62
2022-11-10T22:15:05.535Z,1006.59
2022-11-10T22:16:05.620Z,1006.61
2022-11-10T22:17:05.554Z,1006.59
2022-11-10T22:18:05.504Z,1006.58
2022-11-10T22:19:05.555Z,1006.51
2022-11-10T22:20:05.476Z,1006.49
2022-11-10T22:21:05.504Z,1006.55
2022-11-10T22:22:05.493Z,1006.57
2022-11-10T22:23:05.496Z,1006.70
2022-11-10T22:24:05.482Z,1006.68
2022-11-10T22:25:05.459Z,1006.73
2022-11-10T22:26:05.457Z,1006.73
2022-11-10T22:27:05.447Z,1006.77
2022-11-10T22:28:05.479Z,1006.79
2022-11-10T22:29:05.433Z,1006.78
2022-11-10T22:30:05.436Z,1006.77
2022-11-10T22:31:05.427Z,1006.69
2022-11-10T22:32:05.508Z,1006.74
2022-11-10T22:33:05.429Z,1006.79
2022-11-10T22:34:05.396Z,1006.80
2022-11-10T22:35:05.384Z,1006.81
2022-11-10T22:36:05.446Z,1006.84
2022-11-10T22:37:05.385Z,1006.85
2022-11-10T22:38:05.357Z,1006.87
2022-11-10T22:39:05.362Z,1006.92
2022-11-10T22:40:05.372Z,1006.88
2022-11-10T22:41:05.373Z,1006.85
2022-11-10T22:42:05.323Z,1006.86
2022-11-10T22:43:05.358Z,1006.83
2022-11-10T22:44:05.324Z,1006.89
2022-11-10T22:45:05.353Z,1006.86
2022-11-10T22:46:05.318Z,1006.85
2022-11-10T22:47:05.313Z,1006.81
2022-11-10T22:48:05.365Z,1006.87
2022-11-10T22:49:05.281Z,1006.86
2022-11-10T22:50:05.304Z,1006.94
2022-11-10T22:51:05.269Z,1006.87
2022-11-10T22:52:05.290Z,1006.93
2022-11-10T22:53:05.274Z,1006.87
2022-11-10T22:54:05.269Z,1006.90
2022-11-10T22:55:05.236Z,1006.85
2022-11-10T22:56:05.315Z,1006.87
2022-11-10T22:57:05.232Z,1006.81
2022-11-10T22:58:05.238Z,1006.87
2022-11-10T22:59:05.218Z,1006.80
2022-11-10T23:00:05.213Z,1006.88
2022-11-10T23:01:05.273Z,1006.92
2022-11-10T23:02:05.219Z,1006.90
2022-11-10T23:03:05.187Z,1006.95
2022-11-10T23:04:05.247Z,1006.92
2022-11-10T23:05:05.239Z,1006.93
2022-11-10T23:06:05.182Z,1006.94
2022-11-10T23:07:05.221Z,1006.99
2022-11-10T23:08:05.155Z,1006.99
2022-11-10T23:09:05.147Z,1007.01
2022-11-10T23:10:05.169Z,1006.98
2022-11-10T23:11:05.191Z,1006.98
2022-11-10T23:12:05.139Z,1007.00
2022-11-10T23:13:05.138Z,1007.01
2022-11-10T23:14:05.124Z,1007.01
2022-11-10T23:15:05.110Z,1007.02
2022-11-10T23:16:05.108Z,1006.96
2022-11-10T23:17:05.078Z,1006.99
2022-11-10T23:18:06.866Z,1007.03
2022-11-10T23:19:06.104Z,1006.99
2022-11-10T23:20:05.158Z,1007.06
2022-11-10T23:21:05.097Z,1007.03
2022-11-10T23:22:05.100Z,1006.93
2022-11-10T23:23:05.052Z,1007.02
2022-11-10T23:24:05.056Z,1006.96
2022-11-10T23:25:05.029Z,1007.02
2022-11-10T23:26:05.058Z,1007.00
2022-11-10T23:27:05.082Z,1006.99
2022-11-10T23:28:05.021Z,1007.00
2022-11-10T23:29:05.016Z,1007.04
2022-11-10T23:30:05.025Z,1007.08
2022-11-10T23:31:05.013Z,1007.11
2022-11-10T23:32:04.999Z,1007.16
2022-11-10T23:33:04.985Z,1007.10
2022-11-10T23:34:04.974Z,1007.14
2022-11-10T23:35:04.955Z,1007.12
2022-11-10T23:36:05.059Z,1007.18
2022-11-10T23:37:04.988Z,1007.17
2022-11-10T23:38:04.987Z,1007.08
2022-11-10T23:39:04.988Z,1007.04
2022-11-10T23:40:04.963Z,1007.05
2022-11-10T23:41:04.995Z,1007.15
2022-11-10T23:42:04.949Z,1007.18
2022-11-10T23:43:04.931Z,1007.12
2022-11-10T23:44:04.897Z,1007.17
2022-11-10T23:45:05.025Z,1007.21
2022-11-10T23:46:07.495Z,1007.18
2022-11-10T23:47:05.907Z,1007.15
2022-11-10T23:48:06.962Z,1007.18
2022-11-10T23:49:05.889Z,1007.17
2022-11-10T23:50:04.869Z,1007.15
2022-11-10T23:51:04.883Z,1007.13
2022-11-10T23:52:04.948Z,1007.13
2022-11-10T23:53:04.865Z,1007.11
2022-11-10T23:54:04.878Z,1007.18
2022-11-10T23:55:04.855Z,1007.20
2022-11-10T23:56:04.842Z,1007.17
2022-11-10T23:57:04.831Z,1007.19
2022-11-10T23:58:04.826Z,1007.25
2022-11-10T23:59:04.827Z,1007.28
